Time;durP1;ratioP1;P1;durP2;ratioP2;P2;SDS_P1;SDS_P2;PMS_P1;PMS_P2;Temp;Humidity;BMP_temperature;BMP_pressure;BME280_temperature;BME280_humidity;BME280_pressure;Samples;Min_cycle;Max_cycle;Signal;HPM_P1;HPM_P2
2021/05/05 00:01:02;;;;;;;2.25;0.40;;;14.30;42.70;;;;;;4373172;32;20150;-30
2021/05/05 00:03:28;;;;;;;1.40;0.50;;;14.20;42.80;;;;;;4373211;32;20073;-30
2021/05/05 00:05:55;;;;;;;6.00;0.52;;;14.10;42.90;;;;;;4373073;32;20533;-31
2021/05/05 00:08:21;;;;;;;2.20;0.43;;;14.10;42.80;;;;;;4373427;32;20101;-31
2021/05/05 00:10:48;;;;;;;5.35;0.40;;;14.10;42.70;;;;;;4373491;32;20061;-30
2021/05/05 00:13:15;;;;;;;4.05;0.50;;;14.00;42.40;;;;;;4373462;32;20094;-30
2021/05/05 00:15:41;;;;;;;2.67;0.30;;;14.00;42.60;;;;;;4373145;32;20066;-29
2021/05/05 00:18:08;;;;;;;3.92;0.47;;;13.90;42.60;;;;;;4372813;32;20046;-30
2021/05/05 00:20:34;;;;;;;0.70;0.50;;;13.80;42.60;;;;;;4371460;32;20066;-30
2021/05/05 00:23:01;;;;;;;3.50;0.40;;;13.70;42.80;;;;;;4373057;32;20089;-29
2021/05/05 00:25:28;;;;;;;1.12;0.40;;;13.70;43.10;;;;;;4372814;32;20070;-29
2021/05/05 00:27:54;;;;;;;0.90;0.40;;;13.60;43.30;;;;;;4373402;32;20070;-30
2021/05/05 00:30:22;;;;;;;1.55;0.40;;;13.50;43.50;;;;;;4371275;32;20096;-29
2021/05/05 00:32:49;;;;;;;6.62;0.60;;;13.40;43.60;;;;;;4373386;32;20078;-33
2021/05/05 00:35:15;;;;;;;3.65;0.50;;;13.40;43.80;;;;;;4373311;32;20167;-34
2021/05/05 00:37:43;;;;;;;1.95;0.55;;;13.30;43.80;;;;;;4372878;32;20473;-34
2021/05/05 00:40:11;;;;;;;2.58;0.50;;;13.20;44.10;;;;;;4372996;32;20101;-30
2021/05/05 00:42:37;;;;;;;0.82;0.40;;;13.10;44.30;;;;;;4373156;32;20098;-29
2021/05/05 00:45:10;;;;;;;0.60;0.37;;;13.00;44.50;;;;;;4373075;32;20070;-30
2021/05/05 00:47:37;;;;;;;0.70;0.50;;;12.90;44.60;;;;;;4373362;32;20185;-30
2021/05/05 00:50:06;;;;;;;1.87;0.50;;;12.80;44.50;;;;;;4370949;32;20092;-29
2021/05/05 00:52:32;;;;;;;0.60;0.40;;;12.80;44.40;;;;;;4328448;33;20256;-29
2021/05/05 00:54:59;;;;;;;3.40;0.50;;;12.70;44.00;;;;;;4340694;33;20570;-29
2021/05/05 00:57:28;;;;;;;3.25;0.40;;;12.70;44.10;;;;;;4340350;33;20068;-31
2021/05/05 00:59:54;;;;;;;2.62;0.50;;;12.70;44.00;;;;;;4340493;33;20147;-30
2021/05/05 01:02:21;;;;;;;3.60;0.50;;;12.60;43.70;;;;;;4340152;33;20063;-30
2021/05/05 01:04:47;;;;;;;1.25;0.47;;;12.60;43.50;;;;;;4340837;33;20179;-32
2021/05/05 01:07:14;;;;;;;0.55;0.40;;;12.60;43.40;;;;;;4340961;33;20478;-32
2021/05/05 01:09:45;;;;;;;2.53;0.50;;;12.50;43.50;;;;;;4340553;33;20074;-35
2021/05/05 01:12:12;;;;;;;0.93;0.40;;;12.40;43.60;;;;;;4340571;33;20083;-35
2021/05/05 01:14:39;;;;;;;4.85;0.55;;;12.40;43.80;;;;;;4340663;33;20633;-30
2021/05/05 01:17:06;;;;;;;2.22;0.40;;;12.30;43.90;;;;;;4344603;32;20074;-30
2021/05/05 01:19:34;;;;;;;0.93;0.50;;;12.30;44.10;;;;;;4357146;32;20450;-30
2021/05/05 01:22:00;;;;;;;7.32;0.80;;;12.30;44.50;;;;;;4357885;32;20076;-33
2021/05/05 01:24:27;;;;;;;4.80;1.30;;;12.30;45.00;;;;;;4358235;32;20171;-29
2021/05/05 01:26:53;;;;;;;2.30;0.47;;;12.20;45.40;;;;;;4358243;32;20074;-31
2021/05/05 01:29:19;;;;;;;2.37;0.60;;;12.20;45.80;;;;;;4365594;32;20124;-36
2021/05/05 01:31:47;;;;;;;3.45;0.60;;;12.10;46.00;;;;;;4390338;32;20085;-30
2021/05/05 01:34:13;;;;;;;5.12;0.57;;;12.10;46.30;;;;;;4390696;32;20066;-30
2021/05/05 01:36:39;;;;;;;3.03;0.50;;;12.00;46.30;;;;;;4390326;32;20968;-31
2021/05/05 01:39:13;;;;;;;2.75;0.70;;;12.00;46.40;;;;;;4390279;32;20065;-30
2021/05/05 01:41:39;;;;;;;1.52;0.60;;;12.00;46.50;;;;;;4388988;32;20092;-31
2021/05/05 01:44:06;;;;;;;6.22;0.68;;;12.00;46.40;;;;;;4389969;32;20170;-33
2021/05/05 01:46:32;;;;;;;6.45;0.80;;;11.90;46.50;;;;;;4389908;32;20485;-31
2021/05/05 01:48:58;;;;;;;3.78;1.25;;;11.90;46.80;;;;;;4390253;32;20085;-34
2021/05/05 01:51:25;;;;;;;2.75;0.60;;;12.00;46.90;;;;;;4390391;32;20099;-33
2021/05/05 01:53:51;;;;;;;6.85;0.73;;;12.10;46.90;;;;;;4389805;32;20558;-31
2021/05/05 01:56:18;;;;;;;1.80;0.50;;;12.30;46.90;;;;;;4390279;32;20120;-31
2021/05/05 01:58:44;;;;;;;4.78;0.60;;;12.40;46.60;;;;;;4389773;32;20076;-30
2021/05/05 02:01:10;;;;;;;3.47;0.40;;;12.60;46.30;;;;;;4390019;32;20538;-30
2021/05/05 02:03:37;;;;;;;2.35;0.60;;;12.70;45.90;;;;;;4389919;32;20103;-30
2021/05/05 02:06:04;;;;;;;5.25;0.50;;;12.80;45.70;;;;;;4390016;32;20089;-30
2021/05/05 02:08:30;;;;;;;2.75;0.47;;;13.00;45.50;;;;;;4388553;32;20069;-30
2021/05/05 02:10:56;;;;;;;0.93;0.40;;;13.10;45.00;;;;;;4388179;32;20061;-30
2021/05/05 02:13:23;;;;;;;9.57;0.50;;;13.20;44.70;;;;;;4389669;32;20102;-30
2021/05/05 02:15:49;;;;;;;6.55;0.47;;;13.30;44.70;;;;;;4389809;32;20167;-30
2021/05/05 02:18:15;;;;;;;5.18;0.50;;;13.40;44.40;;;;;;4378007;32;20069;-30
2021/05/05 02:20:42;;;;;;;2.80;0.50;;;13.60;44.00;;;;;;4374705;32;20518;-30
2021/05/05 02:23:08;;;;;;;0.90;0.45;;;13.70;44.00;;;;;;4374289;32;20568;-30
2021/05/05 02:25:35;;;;;;;4.37;0.47;;;13.90;43.90;;;;;;4374957;32;20063;-29
2021/05/05 02:28:01;;;;;;;1.80;0.88;;;14.00;43.60;;;;;;4374663;32;20161;-29
2021/05/05 02:30:27;;;;;;;5.30;0.65;;;14.20;43.20;;;;;;4373946;32;20070;-30
2021/05/05 02:32:57;;;;;;;2.03;0.50;;;14.40;42.80;;;;;;4374603;32;20494;-31
2021/05/05 02:35:23;;;;;;;1.67;0.40;;;14.50;42.40;;;;;;4374675;32;20065;-34
2021/05/05 02:37:51;;;;;;;1.35;0.40;;;14.60;42.20;;;;;;4374830;32;20127;-30
2021/05/05 02:40:17;;;;;;;6.50;0.50;;;14.70;41.90;;;;;;4374654;32;20071;-31
2021/05/05 02:42:44;;;;;;;10.05;0.60;;;14.80;41.80;;;;;;4374287;32;20248;-29
2021/05/05 02:45:11;;;;;;;3.22;0.60;;;15.00;41.90;;;;;;4374332;32;20194;-30
2021/05/05 02:47:37;;;;;;;2.95;0.60;;;15.20;41.50;;;;;;4374767;32;20054;-31
2021/05/05 02:50:05;;;;;;;1.45;0.50;;;15.40;41.00;;;;;;4374213;32;20059;-31
2021/05/05 02:52:31;;;;;;;9.35;0.70;;;15.60;40.70;;;;;;4374280;32;20070;-31
2021/05/05 02:54:58;;;;;;;1.02;0.50;;;15.80;39.90;;;;;;4374456;32;20069;-30
2021/05/05 02:57:24;;;;;;;2.85;0.50;;;16.00;39.30;;;;;;4372792;32;20145;-30
2021/05/05 02:59:51;;;;;;;7.82;0.82;;;16.20;39.10;;;;;;4360369;32;20050;-30
2021/05/05 03:02:17;;;;;;;5.12;0.70;;;16.30;38.90;;;;;;4374080;32;20196;-30
2021/05/05 03:04:43;;;;;;;0.45;0.40;;;16.40;38.40;;;;;;4373942;32;20070;-30
2021/05/05 03:07:10;;;;;;;0.75;0.55;;;16.50;38.30;;;;;;4373764;32;20070;-31
2021/05/05 03:09:36;;;;;;;0.60;0.40;;;16.60;38.60;;;;;;4372629;32;20105;-30
2021/05/05 03:12:03;;;;;;;1.40;0.57;;;16.70;38.30;;;;;;4374173;32;20109;-31
2021/05/05 03:14:30;;;;;;;4.22;0.50;;;16.90;38.00;;;;;;4373919;32;20074;-31
2021/05/05 03:16:57;;;;;;;1.35;0.50;;;16.90;37.40;;;;;;4377689;32;20066;-31
2021/05/05 03:19:24;;;;;;;5.40;0.55;;;16.90;37.30;;;;;;4388913;32;20073;-30
2021/05/05 03:21:50;;;;;;;2.40;0.50;;;16.90;37.60;;;;;;4388818;32;20130;-30
2021/05/05 03:24:17;;;;;;;2.30;0.60;;;17.00;37.50;;;;;;4388890;32;20089;-32
2021/05/05 03:26:43;;;;;;;0.85;0.40;;;17.20;37.30;;;;;;4387092;32;20443;-31
2021/05/05 03:29:10;;;;;;;4.05;0.60;;;17.30;36.90;;;;;;4388871;32;20096;-30
2021/05/05 03:31:36;;;;;;;1.62;0.40;;;17.50;36.50;;;;;;4388700;32;20198;-30
2021/05/05 03:34:04;;;;;;;1.77;0.40;;;17.60;35.40;;;;;;4388644;32;20073;-32
2021/05/05 03:36:31;;;;;;;6.57;0.43;;;17.60;34.80;;;;;;4388246;32;20515;-32
2021/05/05 03:39:01;;;;;;;4.57;0.65;;;17.70;34.90;;;;;;4388358;32;20070;-32
2021/05/05 03:41:29;;;;;;;4.00;0.88;;;17.70;34.60;;;;;;4388193;32;20151;-34
2021/05/05 03:43:56;;;;;;;3.00;0.65;;;17.70;34.60;;;;;;4389074;32;20076;-31
2021/05/05 03:46:23;;;;;;;8.05;1.05;;;17.80;34.70;;;;;;4374839;32;20485;-32
2021/05/05 03:48:49;;;;;;;4.10;0.40;;;17.80;34.70;;;;;;4388536;32;20062;-31
2021/05/05 03:51:15;;;;;;;3.08;0.75;;;17.90;34.70;;;;;;4388450;32;20105;-31
2021/05/05 03:53:42;;;;;;;0.77;0.40;;;18.00;34.50;;;;;;4386844;32;20058;-31
2021/05/05 03:56:08;;;;;;;2.22;0.40;;;18.00;33.80;;;;;;4388417;32;20060;-32
2021/05/05 03:58:35;;;;;;;0.40;0.30;;;18.00;33.70;;;;;;4388327;32;20077;-31
2021/05/05 04:01:01;;;;;;;3.10;0.40;;;17.90;33.50;;;;;;4388134;32;20070;-31
2021/05/05 04:03:28;;;;;;;3.17;0.32;;;17.80;33.70;;;;;;4388262;32;20073;-36
2021/05/05 04:05:54;;;;;;;0.47;0.40;;;17.70;33.80;;;;;;4388338;32;20064;-36
2021/05/05 04:08:21;;;;;;;1.10;0.40;;;17.60;33.70;;;;;;4386624;32;20066;-31
2021/05/05 04:10:47;;;;;;;8.88;0.57;;;17.50;33.70;;;;;;4388018;32;20145;-32
2021/05/05 04:13:13;;;;;;;6.62;0.50;;;17.50;34.10;;;;;;4388229;32;20097;-34
2021/05/05 04:15:40;;;;;;;3.53;0.47;;;17.50;34.10;;;;;;4370121;32;20073;-34
2021/05/05 04:18:07;;;;;;;5.97;0.40;;;17.50;34.00;;;;;;4370291;32;20153;-32
2021/05/05 04:20:33;;;;;;;5.70;0.40;;;17.50;33.80;;;;;;4370703;32;20591;-32
2021/05/05 04:23:00;;;;;;;4.97;0.50;;;17.40;33.80;;;;;;4370719;32;20203;-32
2021/05/05 04:25:26;;;;;;;2.33;0.47;;;17.50;34.30;;;;;;4370584;32;20073;-32
2021/05/05 04:27:53;;;;;;;6.85;0.45;;;17.60;34.20;;;;;;4370347;32;20167;-30
2021/05/05 04:30:20;;;;;;;2.10;0.37;;;17.70;34.10;;;;;;4370118;32;20478;-30
2021/05/05 04:32:50;;;;;;;6.43;0.30;;;17.80;34.10;;;;;;4357967;32;20064;-32
2021/05/05 04:35:17;;;;;;;1.52;0.40;;;17.90;34.00;;;;;;4370500;32;20164;-30
2021/05/05 04:37:44;;;;;;;2.40;0.32;;;18.10;33.30;;;;;;4370370;32;20101;-31
2021/05/05 04:40:11;;;;;;;3.55;0.50;;;18.20;33.10;;;;;;4357178;32;20084;-31
2021/05/05 04:42:38;;;;;;;3.75;0.40;;;18.20;33.00;;;;;;4370460;32;20617;-31
2021/05/05 04:45:06;;;;;;;0.70;0.40;;;18.20;32.80;;;;;;4357947;32;20085;-31
2021/05/05 04:47:36;;;;;;;3.65;1.25;;;18.10;32.80;;;;;;4370310;32;20097;-31
2021/05/05 04:50:08;;;;;;;4.00;0.30;;;18.10;33.00;;;;;;4370277;32;20108;-31
2021/05/05 04:52:34;;;;;;;1.10;0.43;;;18.10;32.70;;;;;;4374985;32;20260;-30
2021/05/05 04:55:01;;;;;;;2.15;0.35;;;18.00;32.60;;;;;;4388644;32;20089;-30
2021/05/05 04:57:28;;;;;;;2.12;0.40;;;17.90;32.50;;;;;;4388698;32;20078;-32
2021/05/05 04:59:54;;;;;;;5.72;0.40;;;17.90;33.30;;;;;;4388054;32;20569;-31
2021/05/05 05:02:20;;;;;;;1.15;0.30;;;17.90;33.90;;;;;;4388290;32;20584;-36
2021/05/05 05:04:47;;;;;;;4.70;0.40;;;17.90;33.60;;;;;;4388005;32;20083;-34
2021/05/05 05:07:13;;;;;;;1.98;0.40;;;18.00;33.60;;;;;;4375780;32;20074;-31
2021/05/05 05:09:40;;;;;;;6.00;0.32;;;18.00;32.80;;;;;;4388154;32;20074;-32
2021/05/05 05:12:07;;;;;;;1.15;0.30;;;18.00;32.30;;;;;;4388630;32;20128;-32
2021/05/05 05:14:36;;;;;;;0.65;0.30;;;18.00;32.40;;;;;;4375724;32;20190;-32
2021/05/05 05:17:03;;;;;;;0.30;0.30;;;17.90;32.50;;;;;;4377803;32;20136;-32
2021/05/05 05:19:30;;;;;;;2.85;0.20;;;17.90;32.70;;;;;;4390766;32;20085;-32
2021/05/05 05:21:57;;;;;;;2.92;0.30;;;17.70;32.70;;;;;;4390217;32;20066;-33
2021/05/05 05:24:23;;;;;;;14.75;0.50;;;17.70;33.20;;;;;;4390496;32;20092;-33
2021/05/05 05:26:51;;;;;;;2.87;0.85;;;17.60;33.20;;;;;;4390521;32;20068;-32
2021/05/05 05:29:18;;;;;;;4.82;0.35;;;17.70;33.20;;;;;;4390570;32;20158;-33
2021/05/05 05:31:44;;;;;;;0.50;0.30;;;17.70;33.30;;;;;;4390035;32;20457;-33
2021/05/05 05:34:11;;;;;;;0.30;0.22;;;17.80;33.10;;;;;;4390642;32;20057;-37
2021/05/05 05:36:38;;;;;;;6.22;0.30;;;17.80;32.80;;;;;;4388246;32;20117;-35
2021/05/05 05:39:05;;;;;;;5.05;0.50;;;17.90;32.10;;;;;;4390279;32;20506;-35
2021/05/05 05:41:32;;;;;;;2.28;0.37;;;17.90;31.90;;;;;;4390432;32;20065;-34
2021/05/05 05:43:58;;;;;;;7.82;0.52;;;18.00;31.80;;;;;;4390308;32;20148;-34
2021/05/05 05:46:25;;;;;;;2.92;0.30;;;17.90;31.70;;;;;;4390233;32;20089;-33
2021/05/05 05:48:51;;;;;;;1.48;0.20;;;17.80;32.10;;;;;;4389984;32;20522;-32
2021/05/05 05:51:18;;;;;;;0.70;0.25;;;17.80;31.80;;;;;;4388329;32;20260;-34
2021/05/05 05:53:44;;;;;;;2.37;0.40;;;17.70;31.90;;;;;;4389744;32;20073;-33
2021/05/05 05:56:11;;;;;;;6.10;0.30;;;17.80;31.60;;;;;;4390190;32;20143;-35
2021/05/05 05:58:37;;;;;;;0.75;0.20;;;17.90;31.70;;;;;;4390233;32;20070;-35
2021/05/05 06:01:04;;;;;;;2.08;0.37;;;17.90;31.30;;;;;;4390121;32;20065;-34
2021/05/05 06:03:30;;;;;;;1.08;0.30;;;17.90;31.40;;;;;;4390346;32;20085;-35
2021/05/05 06:05:57;;;;;;;0.52;0.22;;;17.90;32.30;;;;;;4389160;32;20163;-38
2021/05/05 06:08:23;;;;;;;3.53;0.40;;;18.00;31.40;;;;;;4389744;32;20080;-38
2021/05/05 06:10:50;;;;;;;1.80;0.45;;;18.00;31.50;;;;;;4389770;32;20076;-37
2021/05/05 06:13:19;;;;;;;1.25;0.40;;;18.10;31.30;;;;;;4390204;32;20062;-34
2021/05/05 06:15:45;;;;;;;0.55;0.30;;;18.10;31.30;;;;;;4388271;32;20538;-33
2021/05/05 06:18:12;;;;;;;1.65;0.45;;;18.20;31.50;;;;;;4376411;32;20066;-35
2021/05/05 06:20:38;;;;;;;2.22;0.20;;;18.30;30.90;;;;;;4374531;32;20086;-34
2021/05/05 06:23:05;;;;;;;0.55;0.30;;;18.30;30.80;;;;;;4374749;32;20065;-35
2021/05/05 06:25:31;;;;;;;4.30;0.30;;;18.40;30.70;;;;;;4372965;32;20074;-35
2021/05/05 06:27:58;;;;;;;2.25;0.20;;;18.60;30.80;;;;;;4374601;32;20085;-34
2021/05/05 06:30:24;;;;;;;5.30;0.43;;;18.70;29.90;;;;;;4374693;32;20073;-35
2021/05/05 06:32:51;;;;;;;0.40;0.30;;;18.80;30.00;;;;;;4374507;32;20062;-35
2021/05/05 06:35:17;;;;;;;2.55;0.52;;;18.90;30.00;;;;;;4374573;32;20061;-36
2021/05/05 06:37:44;;;;;;;1.90;0.30;;;19.00;29.90;;;;;;4374538;32;20074;-35
2021/05/05 06:40:12;;;;;;;0.88;0.30;;;19.10;30.00;;;;;;4374497;32;20104;-35
2021/05/05 06:42:38;;;;;;;4.40;0.25;;;19.20;29.80;;;;;;4373962;32;20089;-34
2021/05/05 06:45:06;;;;;;;2.15;0.40;;;19.20;29.70;;;;;;4374553;32;20074;-35
2021/05/05 06:47:32;;;;;;;5.50;0.45;;;19.30;29.60;;;;;;4374562;32;20081;-38
2021/05/05 06:49:59;;;;;;;2.15;0.30;;;19.40;29.40;;;;;;4372638;32;20077;-35
2021/05/05 06:52:25;;;;;;;2.22;0.30;;;19.40;29.50;;;;;;4374377;32;20493;-33
2021/05/05 06:54:52;;;;;;;2.75;0.30;;;19.50;29.60;;;;;;4372575;32;20065;-34
2021/05/05 06:57:18;;;;;;;2.65;0.60;;;19.50;29.30;;;;;;4374164;32;20161;-35
2021/05/05 06:59:45;;;;;;;1.30;0.43;;;19.50;29.70;;;;;;4373731;32;20221;-33
2021/05/05 07:02:11;;;;;;;1.02;0.30;;;19.50;29.60;;;;;;4374391;32;20078;-34
2021/05/05 07:04:38;;;;;;;1.75;0.22;;;19.50;29.40;;;;;;4374195;32;20096;-34
2021/05/05 07:07:04;;;;;;;0.73;0.37;;;19.60;29.50;;;;;;4374508;32;20554;-36
2021/05/05 07:09:31;;;;;;;1.75;0.30;;;19.60;29.30;;;;;;4374168;32;20058;-38
2021/05/05 07:11:57;;;;;;;1.48;0.35;;;19.70;29.10;;;;;;4374005;32;20112;-37
2021/05/05 07:14:24;;;;;;;5.37;0.93;;;19.70;28.80;;;;;;4347496;32;20084;-37
2021/05/05 07:16:50;;;;;;;0.68;0.45;;;19.80;28.60;;;;;;4376618;32;20111;-39
2021/05/05 07:19:17;;;;;;;2.05;0.30;;;19.90;28.30;;;;;;4389005;32;20091;-39
2021/05/05 07:21:43;;;;;;;0.55;0.30;;;20.00;28.30;;;;;;4388595;32;20076;-38
2021/05/05 07:24:10;;;;;;;0.50;0.25;;;20.00;28.50;;;;;;4388505;32;20093;-36
2021/05/05 07:26:37;;;;;;;0.62;0.40;;;19.90;28.10;;;;;;4388670;32;20458;-34
2021/05/05 07:29:04;;;;;;;0.40;0.15;;;19.90;27.90;;;;;;4388676;32;20064;-36
2021/05/05 07:31:30;;;;;;;1.35;0.30;;;19.90;27.90;;;;;;4388570;32;20205;-39
2021/05/05 07:33:58;;;;;;;0.45;0.30;;;19.90;27.80;;;;;;4388711;32;20169;-37
2021/05/05 07:36:26;;;;;;;1.52;0.70;;;19.90;27.80;;;;;;4388861;32;20534;-34
2021/05/05 07:47:15;;;;;;;5.30;0.50;;;19.50;28.90;;;;;;4388228;32;20073;-34
2021/05/05 07:49:51;;;;;;;2.00;0.70;;;19.50;29.30;;;;;;4388188;32;20173;-34
2021/05/05 07:52:19;;;;;;;1.98;0.77;;;19.50;29.20;;;;;;4388392;32;20108;-34
2021/05/05 07:54:46;;;;;;;0.82;0.35;;;19.60;29.10;;;;;;4388472;32;20073;-34
2021/05/05 07:57:13;;;;;;;3.60;0.40;;;19.70;28.80;;;;;;4388297;32;20075;-35
2021/05/05 07:59:39;;;;;;;2.87;0.45;;;19.90;28.40;;;;;;4388182;32;20086;-36
2021/05/05 08:02:06;;;;;;;3.12;0.82;;;20.00;28.20;;;;;;4388277;32;20046;-36
2021/05/05 08:04:33;;;;;;;2.42;0.32;;;20.00;28.20;;;;;;4388225;32;20081;-36
2021/05/05 08:07:00;;;;;;;3.35;0.30;;;20.00;28.30;;;;;;4386697;32;20080;-35
2021/05/05 08:09:27;;;;;;;3.85;0.40;;;20.00;28.40;;;;;;4388279;32;20073;-36
2021/05/05 08:11:53;;;;;;;3.45;0.20;;;20.00;28.60;;;;;;4387867;32;20077;-34
2021/05/05 08:14:20;;;;;;;0.20;0.10;;;19.90;28.10;;;;;;4388475;32;20054;-35
2021/05/05 08:16:47;;;;;;;3.50;0.40;;;19.90;28.70;;;;;;4383900;32;20085;-36
2021/05/05 08:19:14;;;;;;;8.07;0.40;;;19.80;28.40;;;;;;4372808;32;20093;-37
2021/05/05 08:21:43;;;;;;;1.55;0.30;;;19.80;27.70;;;;;;4373524;32;20066;-36
2021/05/05 08:24:10;;;;;;;1.85;0.30;;;19.80;27.50;;;;;;4373276;32;20081;-34
2021/05/05 08:26:37;;;;;;;2.80;0.37;;;19.80;27.70;;;;;;4372874;32;20156;-36
2021/05/05 08:29:04;;;;;;;1.55;0.22;;;19.70;27.80;;;;;;4372561;32;20094;-35
2021/05/05 08:31:30;;;;;;;5.28;0.30;;;19.60;27.90;;;;;;4372692;32;20066;-34
2021/05/05 08:33:57;;;;;;;2.22;0.20;;;19.60;27.50;;;;;;4372844;32;20527;-35
2021/05/05 08:36:23;;;;;;;0.30;0.20;;;19.60;27.30;;;;;;4372738;32;20081;-37
2021/05/05 08:38:50;;;;;;;0.30;0.30;;;19.50;27.50;;;;;;4372470;32;20066;-34
2021/05/05 08:41:16;;;;;;;1.00;0.25;;;19.60;27.00;;;;;;4372734;32;20078;-34
2021/05/05 08:43:43;;;;;;;0.50;0.20;;;19.70;27.20;;;;;;4372917;32;20089;-33
2021/05/05 08:46:09;;;;;;;0.40;0.20;;;19.80;27.50;;;;;;4371159;32;20129;-35
2021/05/05 08:48:36;;;;;;;8.52;0.55;;;19.80;27.00;;;;;;4370712;32;20157;-34
2021/05/05 08:51:06;;;;;;;3.30;0.20;;;19.90;27.20;;;;;;4371026;32;20066;-35
2021/05/05 08:53:33;;;;;;;0.88;0.35;;;20.00;27.10;;;;;;4372870;32;20142;-36
2021/05/05 08:55:59;;;;;;;3.92;0.70;;;20.10;27.30;;;;;;4372670;32;20058;-37
2021/05/05 08:58:26;;;;;;;2.25;0.30;;;20.20;26.70;;;;;;4371261;32;20074;-35
2021/05/05 09:00:53;;;;;;;2.45;0.32;;;20.20;26.30;;;;;;4372802;32;20171;-37
2021/05/05 09:03:32;;;;;;;0.75;0.60;;;20.20;26.60;;;;;;4372768;32;20103;-36
2021/05/05 09:05:59;;;;;;;3.37;0.40;;;20.20;26.80;;;;;;4370845;32;20478;-35
2021/05/05 09:08:27;;;;;;;4.00;0.40;;;20.20;26.20;;;;;;4372903;32;20578;-34
2021/05/05 09:11:08;;;;;;;8.98;0.55;;;20.20;26.50;;;;;;4370979;32;20139;-34
2021/05/05 09:13:51;;;;;;;0.30;0.30;;;20.10;26.90;;;;;;4372650;32;20526;-34
2021/05/05 09:16:32;;;;;;;1.15;0.30;;;20.00;26.50;;;;;;4372308;32;20074;-35
2021/05/05 09:19:07;;;;;;;0.90;0.30;;;19.90;27.10;;;;;;4372420;32;20058;-36
2021/05/05 09:21:35;;;;;;;2.35;0.32;;;19.80;27.20;;;;;;4372282;32;20050;-34
2021/05/05 09:24:25;;;;;;;0.80;0.30;;;19.70;26.90;;;;;;4372120;32;20528;-40
2021/05/05 09:26:58;;;;;;;1.70;0.30;;;19.60;26.90;;;;;;4372679;32;20096;-34
2021/05/05 09:29:46;;;;;;;1.70;0.50;;;19.40;27.30;;;;;;4372431;32;20086;-35
2021/05/05 09:32:14;;;;;;;6.65;0.50;;;19.30;27.70;;;;;;4371135;32;20066;-35
2021/05/05 09:34:41;;;;;;;2.28;0.57;;;19.30;27.70;;;;;;4372169;32;20095;-35
2021/05/05 09:37:10;;;;;;;1.77;0.40;;;19.20;27.40;;;;;;4372608;32;20518;-35
2021/05/05 09:39:39;;;;;;;3.50;0.50;;;19.00;27.40;;;;;;4373265;32;20066;-35
2021/05/05 09:42:18;;;;;;;4.90;0.80;;;18.90;27.40;;;;;;4373489;32;20162;-35
2021/05/05 09:45:05;;;;;;;0.50;0.30;;;18.80;27.60;;;;;;4375350;32;20081;-35
2021/05/05 09:47:56;;;;;;;2.20;0.40;;;18.70;27.60;;;;;;4375306;32;20078;-34
2021/05/05 09:50:29;;;;;;;0.73;0.30;;;18.60;28.00;;;;;;4374931;32;20070;-34
2021/05/05 09:53:28;;;;;;;16.98;0.82;;;18.50;28.40;;;;;;4374856;32;20132;-35
2021/05/05 09:55:58;;;;;;;2.20;0.77;;;18.40;28.40;;;;;;4375371;32;20058;-36
2021/05/05 09:58:38;;;;;;;0.95;0.57;;;18.40;28.50;;;;;;4375108;32;20154;-35
2021/05/05 10:01:14;;;;;;;2.15;0.30;;;18.50;28.60;;;;;;4374933;32;20152;-36
2021/05/05 10:03:55;;;;;;;0.55;0.35;;;18.50;28.70;;;;;;4374910;32;20172;-37
2021/05/05 10:06:27;;;;;;;3.72;0.93;;;18.60;28.70;;;;;;4374791;32;20535;-38
2021/05/05 10:09:04;;;;;;;1.92;0.37;;;18.50;28.60;;;;;;4374709;32;20061;-34
2021/05/05 10:11:41;;;;;;;9.23;0.50;;;18.60;28.70;;;;;;4374581;32;20518;-37
2021/05/05 10:14:14;;;;;;;3.25;0.47;;;18.60;28.40;;;;;;4373279;32;20141;-34
2021/05/05 10:16:44;;;;;;;1.75;0.50;;;18.60;28.00;;;;;;4376666;32;20089;-35
2021/05/05 10:19:18;;;;;;;5.28;0.32;;;18.60;27.90;;;;;;4388561;32;20193;-35
2021/05/05 10:22:01;;;;;;;6.60;0.70;;;18.70;27.80;;;;;;4389990;32;20086;-34
2021/05/05 10:24:31;;;;;;;1.37;0.50;;;18.70;27.80;;;;;;4389945;32;20054;-35
2021/05/05 10:26:58;;;;;;;0.32;0.28;;;18.70;27.60;;;;;;4389689;32;20230;-35
2021/05/05 10:29:24;;;;;;;3.60;0.60;;;18.70;27.60;;;;;;4387862;32;20544;-35
2021/05/05 10:31:55;;;;;;;3.92;0.30;;;18.80;27.80;;;;;;4389956;32;20075;-35
2021/05/05 10:34:25;;;;;;;1.23;0.52;;;18.90;27.90;;;;;;4389270;32;20083;-34
2021/05/05 10:37:02;;;;;;;2.87;0.40;;;18.90;27.90;;;;;;4375726;32;20549;-35
2021/05/05 10:39:34;;;;;;;3.70;0.40;;;18.90;27.70;;;;;;4387810;32;20514;-33
2021/05/05 10:42:04;;;;;;;4.62;0.32;;;18.90;27.50;;;;;;4389498;32;20072;-34
2021/05/05 10:44:53;;;;;;;6.47;0.30;;;19.00;28.10;;;;;;4389503;32;20116;-37
2021/05/05 10:47:35;;;;;;;1.85;1.00;;;19.00;27.30;;;;;;4389415;32;20096;-35
2021/05/05 10:50:13;;;;;;;3.53;0.93;;;19.10;27.30;;;;;;4387111;32;20090;-35
2021/05/05 10:52:42;;;;;;;3.25;0.50;;;19.10;27.10;;;;;;4389203;32;20517;-35
2021/05/05 10:55:13;;;;;;;2.78;0.77;;;19.30;27.20;;;;;;4389185;32;20068;-34
2021/05/05 10:57:41;;;;;;;4.60;0.57;;;19.30;27.00;;;;;;4389295;32;20074;-36
2021/05/05 11:00:13;;;;;;;4.20;0.50;;;19.40;26.90;;;;;;4388943;32;20070;-33
2021/05/05 11:02:53;;;;;;;3.05;0.40;;;19.40;27.10;;;;;;4389348;32;20066;-35
2021/05/05 11:05:42;;;;;;;3.35;0.80;;;19.40;26.90;;;;;;4389288;32;20165;-35
2021/05/05 11:08:31;;;;;;;1.95;0.50;;;19.40;26.80;;;;;;4388842;32;20074;-35
2021/05/05 11:10:58;;;;;;;3.92;0.30;;;19.50;26.80;;;;;;4387503;32;20149;-34
2021/05/05 11:13:25;;;;;;;1.17;0.40;;;19.60;26.40;;;;;;4388651;32;20089;-35
2021/05/05 11:15:51;;;;;;;0.90;0.40;;;19.60;26.50;;;;;;4388782;32;20080;-35
2021/05/05 11:18:31;;;;;;;2.28;0.40;;;19.70;26.70;;;;;;4375482;32;20138;-35
2021/05/05 11:21:06;;;;;;;4.53;0.95;;;19.80;27.10;;;;;;4373668;32;20076;-35
2021/05/05 11:23:40;;;;;;;1.77;0.98;;;19.90;27.10;;;;;;4373348;32;20119;-35
2021/05/05 11:26:19;;;;;;;1.23;0.60;;;19.90;27.00;;;;;;4373851;32;20073;-35
2021/05/05 11:29:02;;;;;;;1.55;0.73;;;19.90;26.90;;;;;;4373648;32;20175;-34
2021/05/05 11:31:47;;;;;;;3.03;0.50;;;19.90;26.70;;;;;;4373315;32;20130;-36
2021/05/05 11:34:23;;;;;;;0.88;0.40;;;19.90;27.10;;;;;;4373999;32;20177;-35
2021/05/05 11:36:59;;;;;;;2.72;0.70;;;19.70;27.20;;;;;;4373195;32;20529;-35
2021/05/05 11:39:32;;;;;;;0.30;0.22;;;19.60;27.50;;;;;;4373445;32;20470;-34
2021/05/05 11:42:01;;;;;;;4.65;0.35;;;19.60;27.30;;;;;;4373492;32;20074;-39
2021/05/05 11:44:48;;;;;;;3.08;0.50;;;19.50;27.20;;;;;;4373207;32;20066;-39
2021/05/05 11:47:25;;;;;;;1.77;0.60;;;19.40;27.30;;;;;;4372953;32;20556;-36
2021/05/05 11:49:57;;;;;;;5.82;0.43;;;19.30;27.10;;;;;;4373554;32;20144;-35
2021/05/05 11:52:32;;;;;;;3.17;0.30;;;19.20;26.90;;;;;;4359279;32;20487;-36
2021/05/05 11:55:08;;;;;;;4.60;0.40;;;19.20;26.70;;;;;;4371862;32;20085;-40
2021/05/05 11:57:39;;;;;;;6.97;1.02;;;19.20;27.00;;;;;;4372910;32;20050;-36
2021/05/05 12:00:19;;;;;;;3.40;0.60;;;19.10;26.70;;;;;;4373312;32;20064;-35
2021/05/05 12:02:48;;;;;;;4.62;0.50;;;19.00;27.50;;;;;;4372491;32;20104;-36
2021/05/05 12:05:28;;;;;;;1.90;0.35;;;19.00;27.00;;;;;;4371945;32;20158;-35
2021/05/05 12:08:13;;;;;;;2.30;0.30;;;19.00;27.00;;;;;;4373340;32;20085;-35
2021/05/05 12:10:57;;;;;;;1.17;0.50;;;18.90;27.00;;;;;;4373169;32;21123;-34
2021/05/05 12:13:29;;;;;;;1.20;0.47;;;18.90;27.20;;;;;;4373184;32;20067;-34
2021/05/05 12:16:26;;;;;;;4.50;0.60;;;18.90;27.30;;;;;;4373601;32;20092;-35
2021/05/05 12:18:53;;;;;;;5.07;0.60;;;18.90;27.70;;;;;;4373126;32;20077;-34
2021/05/05 12:21:22;;;;;;;6.05;0.80;;;18.90;27.70;;;;;;4373228;32;20097;-36
2021/05/05 12:23:57;;;;;;;12.10;1.83;;;18.90;28.00;;;;;;4373193;32;20074;-35
2021/05/05 12:26:25;;;;;;;;;;;18.80;28.00;;;;;;4373613;32;20462;-34
2021/05/05 12:29:06;;;;;;;3.20;0.77;;;18.90;28.00;;;;;;4371484;32;20414;-35
2021/05/05 12:31:38;;;;;;;3.80;0.60;;;18.90;28.00;;;;;;4372817;32;20066;-37
2021/05/05 12:34:05;;;;;;;0.82;0.40;;;18.90;28.00;;;;;;4373102;32;20145;-35
2021/05/05 12:36:35;;;;;;;1.42;0.40;;;19.00;28.20;;;;;;4372845;32;20145;-36
2021/05/05 12:39:11;;;;;;;2.83;0.65;;;19.20;27.80;;;;;;4372763;32;20090;-36
2021/05/05 12:41:50;;;;;;;3.03;0.50;;;19.30;27.00;;;;;;4372758;32;20573;-34
2021/05/05 12:44:17;;;;;;;3.37;0.43;;;19.30;26.80;;;;;;4372950;32;20062;-34
2021/05/05 12:46:56;;;;;;;3.00;0.50;;;19.30;27.00;;;;;;4372303;32;20084;-34
2021/05/05 12:49:37;;;;;;;4.28;0.40;;;19.30;26.90;;;;;;4372554;32;20607;-35
2021/05/05 12:52:30;;;;;;;4.97;0.55;;;19.20;27.00;;;;;;4372720;32;20077;-33
2021/05/05 12:54:58;;;;;;;4.37;0.47;;;19.20;27.20;;;;;;4371771;32;20133;-37
2021/05/05 12:57:25;;;;;;;2.45;0.75;;;19.20;27.00;;;;;;4372613;32;20489;-35
2021/05/05 12:59:53;;;;;;;1.52;0.52;;;19.20;26.90;;;;;;4372454;32;20543;-34
2021/05/05 13:02:28;;;;;;;2.67;0.45;;;19.20;26.80;;;;;;4372729;32;20127;-38
2021/05/05 13:05:07;;;;;;;3.25;0.95;;;19.30;26.90;;;;;;4372676;32;20540;-41
2021/05/05 13:07:38;;;;;;;4.70;0.70;;;19.40;26.90;;;;;;4370896;32;20731;-36